createdAt,value
2018-03-07T15:21:07.779Z,202
2018-03-07T15:22:15.099Z,201
2018-03-07T15:23:22.356Z,200
2018-03-07T15:24:29.562Z,200
2018-03-07T15:25:36.508Z,200
2018-03-07T15:26:43.709Z,199
2018-03-07T15:27:50.924Z,199
2018-03-07T15:28:57.860Z,199
2018-03-07T15:30:05.066Z,199
2018-03-07T15:31:12.273Z,199
2018-03-07T15:32:19.485Z,198
2018-03-07T15:33:26.690Z,198
2018-03-07T15:34:33.899Z,198
2018-03-07T15:35:41.112Z,198
2018-03-07T15:36:48.037Z,197
2018-03-07T15:37:55.275Z,189
2018-03-07T15:39:02.478Z,191
2018-03-07T15:40:09.691Z,195
2018-03-07T15:41:16.901Z,197
2018-03-07T15:42:24.100Z,198
2018-03-07T15:43:31.310Z,199
2018-03-07T15:44:38.511Z,199
2018-03-07T15:45:45.473Z,200
2018-03-07T15:46:52.700Z,200
2018-03-07T15:47:59.935Z,200
2018-03-07T15:49:07.139Z,199
2018-03-07T15:50:14.354Z,199
2018-03-07T15:51:21.556Z,199
2018-03-07T15:52:28.755Z,199
2018-03-07T15:53:36.037Z,199
2018-03-07T15:54:43.243Z,197
2018-03-07T15:55:50.449Z,189
2018-03-07T15:56:57.411Z,183
2018-03-07T15:58:04.342Z,181
2018-03-07T15:59:11.554Z,180
2018-03-07T16:00:18.756Z,180
2018-03-07T16:01:25.985Z,179
2018-03-07T16:02:33.192Z,182
2018-03-07T16:03:40.392Z,184
2018-03-07T16:04:47.596Z,186
2018-03-07T16:05:54.560Z,186
2018-03-07T16:07:01.774Z,187
2018-03-07T16:08:08.709Z,187
2018-03-07T16:09:15.648Z,189
2018-03-07T16:10:22.854Z,194
2018-03-07T16:11:30.091Z,198
2018-03-07T16:12:37.299Z,201
2018-03-07T16:13:44.508Z,202
2018-03-07T16:14:51.709Z,202
2018-03-07T16:15:58.921Z,203
2018-03-07T16:17:06.439Z,203
2018-03-07T16:18:13.643Z,202
2018-03-07T16:19:20.851Z,203
2018-03-07T16:20:28.056Z,203
2018-03-07T16:21:35.265Z,203
2018-03-07T16:22:42.472Z,203
2018-03-07T16:23:49.675Z,203
2018-03-07T16:24:56.878Z,203
2018-03-07T16:26:04.084Z,202
2018-03-07T16:27:11.286Z,202
2018-03-07T16:28:18.494Z,202
2018-03-07T16:29:25.425Z,201
2018-03-07T16:30:32.643Z,201
2018-03-07T16:31:40.054Z,201
2018-03-07T16:32:47.291Z,202
2018-03-07T16:33:54.504Z,202
2018-03-07T16:35:01.726Z,203
2018-03-07T16:36:08.930Z,203
2018-03-07T16:37:16.130Z,203
2018-03-07T16:38:23.331Z,204
2018-03-07T16:39:30.534Z,204
2018-03-07T16:40:37.740Z,204
2018-03-07T16:41:44.948Z,204
2018-03-07T16:42:51.884Z,204
2018-03-07T16:43:59.097Z,204
2018-03-07T16:45:06.037Z,205
2018-03-07T16:46:13.273Z,204
2018-03-07T16:47:20.209Z,204
2018-03-07T16:48:27.522Z,204
2018-03-07T16:49:34.736Z,204
2018-03-07T16:50:41.955Z,204
2018-03-07T16:51:49.191Z,204
2018-03-07T16:52:56.391Z,205
2018-03-07T16:54:03.598Z,205
2018-03-07T16:55:10.815Z,205
2018-03-07T16:56:18.134Z,206
2018-03-07T16:57:25.479Z,206
2018-03-07T16:58:32.689Z,205
2018-03-07T16:59:39.616Z,205
2018-03-07T17:00:46.825Z,204
2018-03-07T17:01:54.035Z,204
2018-03-07T17:03:00.967Z,204
2018-03-07T17:04:08.183Z,204
2018-03-07T17:47:10.718Z,217
2018-03-07T17:48:17.927Z,220
2018-03-07T17:49:25.147Z,224
2018-03-07T17:50:32.380Z,230
2018-03-07T17:51:39.310Z,237
2018-03-07T17:52:46.554Z,251
2018-03-07T17:53:53.487Z,262
2018-03-07T17:55:00.706Z,275
2018-03-07T17:56:07.992Z,284
2018-03-07T17:57:15.255Z,287
2018-03-07T17:58:22.450Z,288
2018-03-07T17:59:29.658Z,287
2018-03-07T18:00:36.872Z,287
2018-03-07T18:01:44.082Z,287
2018-03-07T18:02:51.298Z,287
2018-03-07T18:03:58.510Z,286
2018-03-07T18:05:05.705Z,286
2018-03-07T18:06:12.838Z,287
2018-03-07T18:07:20.040Z,286
2018-03-07T18:08:26.696Z,288
2018-03-07T18:09:33.899Z,286
2018-03-07T18:10:41.113Z,286
2018-03-07T18:11:48.318Z,287
2018-03-07T18:12:55.518Z,287
2018-03-07T18:14:03.546Z,287
2018-03-07T18:15:10.480Z,287
2018-03-07T18:16:17.723Z,286
2018-03-07T18:17:24.939Z,287
2018-03-07T18:18:31.867Z,287
2018-03-07T18:19:39.073Z,287
2018-03-07T18:20:46.289Z,289
2018-03-07T18:21:53.258Z,287
2018-03-07T18:23:00.209Z,288
2018-03-07T18:24:07.434Z,289
2018-03-07T18:25:14.661Z,289
2018-03-07T18:26:21.898Z,289
2018-03-07T18:27:29.112Z,290
2018-03-07T18:28:36.318Z,289
2018-03-07T18:29:43.254Z,291
2018-03-07T18:30:50.191Z,291
2018-03-07T18:31:57.403Z,291
2018-03-07T18:33:04.613Z,291
2018-03-07T18:34:11.814Z,292
2018-03-07T18:35:19.035Z,293
2018-03-07T18:36:26.635Z,293
2018-03-07T18:37:33.299Z,294
2018-03-07T18:38:40.549Z,294
2018-03-07T18:39:47.759Z,294
2018-03-07T18:40:55.012Z,295
2018-03-07T18:42:02.219Z,295
2018-03-07T18:43:09.435Z,296
2018-03-07T18:44:16.464Z,296
2018-03-07T18:45:23.417Z,296
2018-03-07T18:46:30.363Z,296
2018-03-07T18:47:37.577Z,297
2018-03-07T18:48:44.797Z,298
2018-03-07T18:49:52.052Z,298
2018-03-07T18:50:59.008Z,298
2018-03-07T18:52:06.232Z,299
2018-03-07T18:53:13.452Z,301
2018-03-07T18:54:20.664Z,301
2018-03-07T18:55:27.886Z,303
2018-03-07T18:56:35.119Z,303
2018-03-07T18:57:42.347Z,303
2018-03-07T18:58:49.578Z,304
2018-03-07T18:59:56.838Z,306
2018-03-07T19:01:04.067Z,306
2018-03-07T19:02:11.337Z,307
2018-03-07T19:03:18.566Z,307
2018-03-07T19:04:25.790Z,307
2018-03-07T19:05:33.012Z,308
2018-03-07T19:06:40.233Z,309
2018-03-07T19:07:47.186Z,309
2018-03-07T19:08:54.140Z,310
2018-03-07T19:10:01.390Z,310
2018-03-07T19:11:08.613Z,311
2018-03-07T19:12:15.833Z,311
2018-03-07T19:13:23.051Z,310
2018-03-07T19:14:29.998Z,310
2018-03-07T19:15:37.228Z,311
2018-03-07T19:16:44.457Z,310
2018-03-07T19:17:51.420Z,255
2018-03-07T19:18:59.023Z,284
2018-03-07T19:20:06.249Z,292
2018-03-07T19:21:13.466Z,294
2018-03-07T19:22:20.415Z,293
2018-03-07T19:23:27.641Z,293
2018-03-07T19:24:34.862Z,294
2018-03-07T19:25:42.084Z,296
2018-03-07T19:26:49.309Z,298
2018-03-07T19:27:56.524Z,299
2018-03-07T19:29:03.761Z,299
2018-03-07T19:30:10.714Z,300
2018-03-07T19:31:17.937Z,299
2018-03-07T19:32:25.157Z,300
2018-03-07T19:33:32.371Z,300
2018-03-07T19:34:39.820Z,300
2018-03-07T19:35:47.045Z,299
2018-03-07T19:36:54.280Z,299
2018-03-07T19:38:01.496Z,299
2018-03-07T19:39:08.756Z,299
2018-03-07T19:40:15.984Z,299
2018-03-07T19:41:23.209Z,299
2018-03-07T19:42:30.435Z,298
2018-03-07T19:43:37.376Z,298
2018-03-07T19:44:44.622Z,298
2018-03-07T19:45:52.012Z,298
2018-03-07T19:46:59.236Z,298
2018-03-07T19:48:06.188Z,297
2018-03-07T19:49:13.432Z,297
2018-03-07T19:50:20.671Z,297
2018-03-07T19:51:27.621Z,297
2018-03-07T19:52:34.844Z,296
2018-03-07T19:53:42.066Z,296
2018-03-07T19:54:49.403Z,296
2018-03-07T19:55:56.628Z,295
2018-03-07T19:57:03.860Z,295
2018-03-07T19:58:11.097Z,295
2018-03-07T19:59:18.260Z,295
2018-03-07T20:00:25.207Z,294
2018-03-07T20:01:32.431Z,293
2018-03-07T20:02:39.656Z,293
2018-03-07T20:03:46.934Z,293
2018-03-07T20:04:54.381Z,293
2018-03-07T20:06:01.619Z,292
2018-03-07T20:07:08.579Z,292
2018-03-07T20:08:15.852Z,292
2018-03-07T20:09:23.082Z,292
2018-03-07T20:10:30.037Z,291
2018-03-07T20:11:37.274Z,291
2018-03-07T20:12:44.508Z,291
2018-03-07T20:13:51.899Z,290
2018-03-07T20:14:58.572Z,290
2018-03-07T20:16:05.517Z,290
2018-03-07T20:17:12.470Z,289
2018-03-07T20:18:19.693Z,290
2018-03-07T20:19:26.916Z,289
2018-03-07T20:20:34.149Z,288
2018-03-07T20:21:41.318Z,289
2018-03-07T20:22:48.547Z,288
2018-03-07T20:23:55.767Z,288
2018-03-07T20:25:02.987Z,288
2018-03-07T20:26:10.215Z,287
2018-03-07T20:27:17.450Z,286
2018-03-07T20:28:24.676Z,286
2018-03-07T20:29:31.899Z,286
2018-03-07T20:30:38.892Z,286
2018-03-07T20:31:46.123Z,285
2018-03-07T20:32:53.354Z,285
2018-03-07T20:34:00.560Z,285
2018-03-07T20:35:07.783Z,285
2018-03-07T20:36:15.038Z,285
2018-03-07T20:37:22.262Z,285
2018-03-07T20:38:29.494Z,284
2018-03-07T20:39:36.711Z,284
2018-03-07T20:40:43.930Z,284
2018-03-07T20:41:51.193Z,283
2018-03-07T20:42:58.419Z,283
2018-03-07T20:44:05.642Z,283
2018-03-07T20:45:12.946Z,282
2018-03-07T20:46:20.235Z,282
2018-03-07T20:47:27.457Z,281
2018-03-07T20:48:34.671Z,281
2018-03-07T20:49:41.895Z,281
2018-03-07T20:50:49.132Z,280
2018-03-07T20:51:56.354Z,279
2018-03-07T20:53:03.575Z,278
2018-03-07T20:54:10.786Z,277
2018-03-07T20:55:18.012Z,275
2018-03-07T20:56:25.227Z,274
2018-03-07T20:57:32.449Z,273
2018-03-07T20:58:39.654Z,272
2018-03-07T20:59:46.890Z,271
2018-03-07T21:00:54.105Z,270
2018-03-07T21:02:01.322Z,268
2018-03-07T21:03:08.541Z,267
2018-03-07T21:04:15.804Z,266
2018-03-07T21:05:23.055Z,266
2018-03-07T21:06:30.306Z,265
2018-03-07T21:07:37.522Z,264
2018-03-07T21:08:44.730Z,263
2018-03-07T21:09:51.954Z,263
2018-03-07T21:10:58.891Z,261
2018-03-07T21:12:06.104Z,260
2018-03-07T21:13:13.318Z,259
2018-03-07T21:14:20.560Z,258
2018-03-07T21:15:27.780Z,257
2018-03-07T21:16:34.986Z,256
2018-03-07T21:17:42.199Z,254
2018-03-07T21:18:49.414Z,252
2018-03-07T21:19:56.643Z,251
2018-03-07T21:21:03.860Z,249
2018-03-07T21:22:11.209Z,247
2018-03-07T21:23:18.448Z,245
2018-03-07T21:24:25.660Z,243
2018-03-07T21:25:32.879Z,241
2018-03-07T21:26:40.077Z,240
2018-03-07T21:27:47.279Z,239
2018-03-07T21:28:54.480Z,239
2018-03-07T21:30:01.689Z,238
2018-03-07T21:31:08.632Z,238
2018-03-07T21:32:15.288Z,238
2018-03-07T21:33:21.933Z,238
2018-03-07T21:34:29.130Z,238
2018-03-07T21:35:36.064Z,238
2018-03-07T21:36:43.268Z,238
2018-03-07T21:37:49.916Z,238
2018-03-07T21:38:56.833Z,238
2018-03-07T21:40:04.040Z,237
2018-03-07T21:41:11.249Z,237
2018-03-07T21:42:18.180Z,237
2018-03-07T21:43:25.629Z,237
2018-03-07T21:44:32.550Z,237
2018-03-07T21:45:39.474Z,237
2018-03-07T21:46:46.677Z,237
2018-03-07T21:47:53.884Z,237
2018-03-07T21:49:00.840Z,236
2018-03-07T21:50:07.768Z,236
2018-03-07T21:51:14.693Z,236
2018-03-07T21:52:21.619Z,236
2018-03-07T21:53:28.823Z,236
2018-03-07T21:54:35.744Z,236
2018-03-07T21:55:42.389Z,236
2018-03-07T21:56:49.591Z,236
2018-03-07T21:57:56.790Z,236
2018-03-07T21:59:03.996Z,236
2018-03-07T22:00:11.211Z,235
2018-03-07T22:01:18.413Z,235
2018-03-07T22:02:25.054Z,235
2018-03-07T22:03:32.261Z,235
2018-03-07T22:04:39.451Z,235
2018-03-07T22:05:46.652Z,235
2018-03-07T22:06:53.853Z,235
2018-03-07T22:08:30.353Z,235
2018-03-07T22:09:37.550Z,235
2018-03-07T22:10:44.482Z,235
2018-03-07T22:11:51.676Z,235
2018-03-07T22:13:13.533Z,235
2018-03-07T22:14:20.744Z,235
2018-03-07T22:15:27.933Z,235
2018-03-07T22:16:35.134Z,236
2018-03-07T22:17:42.329Z,236
2018-03-07T22:18:49.525Z,236
2018-03-07T22:19:56.724Z,236
2018-03-07T22:21:03.925Z,236
2018-03-07T22:22:10.849Z,236
2018-03-07T22:23:18.056Z,236
2018-03-07T22:24:25.263Z,237
2018-03-07T22:25:32.483Z,237
2018-03-07T22:26:39.671Z,237
2018-03-07T22:27:46.874Z,237
2018-03-07T22:28:54.077Z,237
2018-03-07T22:30:01.300Z,237
2018-03-07T22:31:08.494Z,237
2018-03-07T22:32:15.696Z,236
2018-03-07T22:33:22.631Z,236
2018-03-07T22:34:29.836Z,236
2018-03-07T22:35:37.030Z,236
2018-03-07T22:36:44.234Z,236
2018-03-07T22:37:51.278Z,236
2018-03-07T22:38:58.252Z,236
2018-03-07T22:40:05.450Z,235
2018-03-07T22:41:12.383Z,236
2018-03-07T22:42:19.582Z,236
2018-03-07T22:43:26.779Z,236
2018-03-07T22:44:33.977Z,235
2018-03-07T22:45:41.179Z,235
2018-03-07T22:46:48.389Z,235
2018-03-07T22:47:55.621Z,235
2018-03-07T22:49:02.825Z,234
2018-03-07T22:50:10.025Z,234
2018-03-07T22:51:17.230Z,234
2018-03-07T22:52:24.434Z,234
2018-03-07T22:53:31.373Z,234
2018-03-07T22:54:38.373Z,233
2018-03-07T22:55:45.576Z,233
2018-03-07T22:56:52.778Z,233
2018-03-07T22:57:59.700Z,233
2018-03-07T22:59:06.896Z,233
2018-03-07T23:00:14.097Z,232
2018-03-07T23:01:21.302Z,232
2018-03-07T23:02:28.510Z,232
2018-03-07T23:03:35.709Z,232
2018-03-07T23:04:42.915Z,232
2018-03-07T23:05:49.839Z,232
2018-03-07T23:06:57.440Z,232
2018-03-07T23:08:04.083Z,233
2018-03-07T23:09:11.284Z,235
2018-03-07T23:10:18.481Z,237
2018-03-07T23:11:25.414Z,239
2018-03-07T23:12:32.617Z,240
2018-03-07T23:13:39.808Z,236
2018-03-07T23:14:47.140Z,233
2018-03-07T23:15:54.360Z,231
2018-03-07T23:17:01.566Z,229
2018-03-07T23:18:09.782Z,227
2018-03-07T23:19:16.976Z,225
2018-03-07T23:20:23.899Z,225
2018-03-07T23:21:31.310Z,223
2018-03-07T23:22:38.229Z,222
2018-03-07T23:23:45.424Z,221
2018-03-07T23:24:52.353Z,221
2018-03-07T23:25:59.553Z,218
2018-03-07T23:27:06.754Z,235
2018-03-07T23:28:13.958Z,225
2018-03-07T23:29:21.196Z,222
2018-03-07T23:30:28.417Z,225
2018-03-07T23:31:35.617Z,224
2018-03-07T23:32:42.814Z,224
2018-03-07T23:33:50.035Z,223
2018-03-07T23:34:57.238Z,223
2018-03-07T23:36:04.435Z,224
2018-03-07T23:37:11.663Z,224
2018-03-07T23:38:18.864Z,224
2018-03-07T23:39:25.790Z,225
2018-03-07T23:40:33.032Z,225
2018-03-07T23:41:40.258Z,225
2018-03-07T23:42:47.472Z,225
2018-03-07T23:43:54.704Z,225
2018-03-07T23:45:01.901Z,225
2018-03-07T23:46:08.828Z,225
2018-03-07T23:47:16.026Z,225
2018-03-07T23:48:23.231Z,225
2018-03-07T23:49:30.428Z,225
2018-03-07T23:50:37.630Z,225
2018-03-07T23:51:44.272Z,225
2018-03-07T23:52:51.479Z,225
2018-03-07T23:53:58.681Z,225
2018-03-07T23:55:05.612Z,225
2018-03-07T23:56:12.808Z,226
2018-03-07T23:57:20.012Z,225
2018-03-07T23:58:27.208Z,226
2018-03-07T23:59:34.405Z,226
